sensor_id;sensor_type;location;lat;lon;timestamp;P1;durP1;ratioP1;P2;durP2;ratioP2
11651;SDS011;5882;48.818;9.114;2023-04-30T00:00:36;1.85;;;1.75;;
11651;SDS011;5882;48.818;9.114;2023-04-30T00:03:21;1.80;;;1.70;;
11651;SDS011;5882;48.818;9.114;2023-04-30T00:06:08;2.00;;;1.80;;
11651;SDS011;5882;48.818;9.114;2023-04-30T00:08:53;2.08;;;1.70;;
11651;SDS011;5882;48.818;9.114;2023-04-30T00:11:38;1.92;;;1.77;;
11651;SDS011;5882;48.818;9.114;2023-04-30T00:14:23;1.60;;;1.50;;
11651;SDS011;5882;48.818;9.114;2023-04-30T00:17:08;1.90;;;1.80;;
11651;SDS011;5882;48.818;9.114;2023-04-30T00:19:53;1.80;;;1.70;;
11651;SDS011;5882;48.818;9.114;2023-04-30T00:22:39;1.65;;;1.55;;
11651;SDS011;5882;48.818;9.114;2023-04-30T00:25:24;1.80;;;1.70;;
11651;SDS011;5882;48.818;9.114;2023-04-30T00:28:09;1.90;;;1.70;;
11651;SDS011;5882;48.818;9.114;2023-04-30T00:30:54;1.55;;;1.45;;
11651;SDS011;5882;48.818;9.114;2023-04-30T00:33:39;1.90;;;1.70;;
11651;SDS011;5882;48.818;9.114;2023-04-30T00:36:24;1.65;;;1.55;;
11651;SDS011;5882;48.818;9.114;2023-04-30T00:39:10;2.00;;;1.90;;
11651;SDS011;5882;48.818;9.114;2023-04-30T00:41:55;1.70;;;1.55;;
11651;SDS011;5882;48.818;9.114;2023-04-30T00:44:40;1.90;;;1.70;;
11651;SDS011;5882;48.818;9.114;2023-04-30T00:47:25;2.15;;;1.95;;
11651;SDS011;5882;48.818;9.114;2023-04-30T00:50:10;2.05;;;1.92;;
11651;SDS011;5882;48.818;9.114;2023-04-30T00:52:58;1.58;;;1.48;;
11651;SDS011;5882;48.818;9.114;2023-04-30T00:55:45;2.00;;;1.90;;
11651;SDS011;5882;48.818;9.114;2023-04-30T00:58:30;1.90;;;1.70;;
11651;SDS011;5882;48.818;9.114;2023-04-30T01:01:16;1.73;;;1.63;;
11651;SDS011;5882;48.818;9.114;2023-04-30T01:04:01;1.70;;;1.60;;
11651;SDS011;5882;48.818;9.114;2023-04-30T01:06:46;2.00;;;1.80;;
11651;SDS011;5882;48.818;9.114;2023-04-30T01:09:32;2.15;;;1.95;;
11651;SDS011;5882;48.818;9.114;2023-04-30T01:12:19;1.98;;;1.83;;
11651;SDS011;5882;48.818;9.114;2023-04-30T01:15:07;2.53;;;2.33;;
11651;SDS011;5882;48.818;9.114;2023-04-30T01:17:53;1.75;;;1.65;;
11651;SDS011;5882;48.818;9.114;2023-04-30T01:20:41;2.00;;;1.90;;
11651;SDS011;5882;48.818;9.114;2023-04-30T01:23:32;1.90;;;1.80;;
11651;SDS011;5882;48.818;9.114;2023-04-30T01:26:28;2.05;;;1.92;;
11651;SDS011;5882;48.818;9.114;2023-04-30T01:29:20;1.90;;;1.80;;
11651;SDS011;5882;48.818;9.114;2023-04-30T01:32:06;2.75;;;2.55;;
11651;SDS011;5882;48.818;9.114;2023-04-30T01:34:50;2.00;;;1.77;;
11651;SDS011;5882;48.818;9.114;2023-04-30T01:37:37;2.00;;;1.90;;
11651;SDS011;5882;48.818;9.114;2023-04-30T01:40:26;1.83;;;1.70;;
11651;SDS011;5882;48.818;9.114;2023-04-30T01:43:16;1.95;;;1.83;;
11651;SDS011;5882;48.818;9.114;2023-04-30T01:46:07;2.40;;;2.20;;
11651;SDS011;5882;48.818;9.114;2023-04-30T01:48:58;2.65;;;2.40;;
11651;SDS011;5882;48.818;9.114;2023-04-30T01:51:47;2.40;;;2.20;;
11651;SDS011;5882;48.818;9.114;2023-04-30T01:54:34;2.90;;;2.67;;
11651;SDS011;5882;48.818;9.114;2023-04-30T01:57:25;2.75;;;2.55;;
11651;SDS011;5882;48.818;9.114;2023-04-30T02:00:10;2.80;;;2.50;;
11651;SDS011;5882;48.818;9.114;2023-04-30T02:02:59;2.75;;;2.22;;
11651;SDS011;5882;48.818;9.114;2023-04-30T02:05:44;3.63;;;2.85;;
11651;SDS011;5882;48.818;9.114;2023-04-30T02:08:29;2.60;;;2.40;;
11651;SDS011;5882;48.818;9.114;2023-04-30T02:11:14;2.92;;;2.70;;
11651;SDS011;5882;48.818;9.114;2023-04-30T02:13:59;3.15;;;2.72;;
11651;SDS011;5882;48.818;9.114;2023-04-30T02:16:44;2.60;;;2.40;;
11651;SDS011;5882;48.818;9.114;2023-04-30T02:19:30;2.95;;;2.65;;
11651;SDS011;5882;48.818;9.114;2023-04-30T02:22:15;2.45;;;2.25;;
11651;SDS011;5882;48.818;9.114;2023-04-30T02:25:00;3.25;;;2.80;;
11651;SDS011;5882;48.818;9.114;2023-04-30T02:27:45;3.47;;;2.63;;
11651;SDS011;5882;48.818;9.114;2023-04-30T02:30:29;3.17;;;2.85;;
11651;SDS011;5882;48.818;9.114;2023-04-30T02:33:14;2.97;;;2.67;;
11651;SDS011;5882;48.818;9.114;2023-04-30T02:36:01;2.80;;;2.60;;
11651;SDS011;5882;48.818;9.114;2023-04-30T02:38:46;3.15;;;2.85;;
11651;SDS011;5882;48.818;9.114;2023-04-30T02:41:31;2.38;;;2.17;;
11651;SDS011;5882;48.818;9.114;2023-04-30T02:44:16;3.08;;;2.83;;
11651;SDS011;5882;48.818;9.114;2023-04-30T02:47:01;3.00;;;2.80;;
11651;SDS011;5882;48.818;9.114;2023-04-30T02:49:46;3.17;;;2.85;;
11651;SDS011;5882;48.818;9.114;2023-04-30T02:52:32;3.03;;;2.60;;
11651;SDS011;5882;48.818;9.114;2023-04-30T02:55:18;2.50;;;2.30;;
11651;SDS011;5882;48.818;9.114;2023-04-30T02:58:03;3.50;;;2.97;;
11651;SDS011;5882;48.818;9.114;2023-04-30T03:00:48;2.90;;;2.70;;
11651;SDS011;5882;48.818;9.114;2023-04-30T03:03:33;3.17;;;2.97;;
11651;SDS011;5882;48.818;9.114;2023-04-30T03:06:17;2.80;;;2.45;;
11651;SDS011;5882;48.818;9.114;2023-04-30T03:09:04;2.75;;;2.55;;
11651;SDS011;5882;48.818;9.114;2023-04-30T03:11:49;3.47;;;3.17;;
11651;SDS011;5882;48.818;9.114;2023-04-30T03:14:34;4.22;;;2.78;;
11651;SDS011;5882;48.818;9.114;2023-04-30T03:17:19;3.10;;;2.80;;
11651;SDS011;5882;48.818;9.114;2023-04-30T03:20:04;3.35;;;2.95;;
11651;SDS011;5882;48.818;9.114;2023-04-30T03:22:50;3.33;;;3.03;;
11651;SDS011;5882;48.818;9.114;2023-04-30T03:25:36;2.90;;;2.65;;
11651;SDS011;5882;48.818;9.114;2023-04-30T03:28:21;3.03;;;2.60;;
11651;SDS011;5882;48.818;9.114;2023-04-30T03:31:06;3.28;;;2.97;;
11651;SDS011;5882;48.818;9.114;2023-04-30T03:33:51;2.63;;;2.42;;
11651;SDS011;5882;48.818;9.114;2023-04-30T03:36:36;3.15;;;2.85;;
11651;SDS011;5882;48.818;9.114;2023-04-30T03:39:21;2.90;;;2.70;;
11651;SDS011;5882;48.818;9.114;2023-04-30T03:42:07;2.97;;;2.65;;
11651;SDS011;5882;48.818;9.114;2023-04-30T03:44:52;4.03;;;2.97;;
11651;SDS011;5882;48.818;9.114;2023-04-30T03:47:37;3.85;;;3.13;;
11651;SDS011;5882;48.818;9.114;2023-04-30T03:50:22;3.20;;;2.83;;
11651;SDS011;5882;48.818;9.114;2023-04-30T03:53:07;3.35;;;3.00;;
11651;SDS011;5882;48.818;9.114;2023-04-30T03:55:52;3.10;;;2.78;;
11651;SDS011;5882;48.818;9.114;2023-04-30T03:58:39;2.80;;;2.60;;
11651;SDS011;5882;48.818;9.114;2023-04-30T04:01:24;2.80;;;2.60;;
11651;SDS011;5882;48.818;9.114;2023-04-30T04:04:09;3.40;;;3.10;;
11651;SDS011;5882;48.818;9.114;2023-04-30T04:06:54;3.67;;;3.30;;
11651;SDS011;5882;48.818;9.114;2023-04-30T04:09:39;2.90;;;2.70;;
11651;SDS011;5882;48.818;9.114;2023-04-30T04:12:24;3.25;;;2.95;;
11651;SDS011;5882;48.818;9.114;2023-04-30T04:15:11;3.03;;;2.63;;
11651;SDS011;5882;48.818;9.114;2023-04-30T04:17:56;2.47;;;2.28;;
11651;SDS011;5882;48.818;9.114;2023-04-30T04:20:41;3.15;;;2.67;;
11651;SDS011;5882;48.818;9.114;2023-04-30T04:23:26;3.30;;;3.03;;
11651;SDS011;5882;48.818;9.114;2023-04-30T04:26:11;4.05;;;3.40;;
11651;SDS011;5882;48.818;9.114;2023-04-30T04:28:56;3.20;;;2.90;;
11651;SDS011;5882;48.818;9.114;2023-04-30T04:31:42;3.35;;;3.05;;
11651;SDS011;5882;48.818;9.114;2023-04-30T04:34:27;3.15;;;2.85;;
11651;SDS011;5882;48.818;9.114;2023-04-30T04:37:12;3.40;;;2.90;;
11651;SDS011;5882;48.818;9.114;2023-04-30T04:39:58;3.15;;;2.95;;
11651;SDS011;5882;48.818;9.114;2023-04-30T04:42:43;3.05;;;2.75;;
11651;SDS011;5882;48.818;9.114;2023-04-30T04:45:28;3.35;;;3.05;;
11651;SDS011;5882;48.818;9.114;2023-04-30T04:48:15;2.65;;;2.45;;
11651;SDS011;5882;48.818;9.114;2023-04-30T04:51:00;3.22;;;2.92;;
11651;SDS011;5882;48.818;9.114;2023-04-30T04:53:46;3.38;;;3.08;;
11651;SDS011;5882;48.818;9.114;2023-04-30T04:56:31;3.15;;;2.88;;
11651;SDS011;5882;48.818;9.114;2023-04-30T04:59:16;3.45;;;3.15;;
11651;SDS011;5882;48.818;9.114;2023-04-30T05:02:02;3.10;;;2.80;;
11651;SDS011;5882;48.818;9.114;2023-04-30T05:04:48;3.15;;;2.85;;
11651;SDS011;5882;48.818;9.114;2023-04-30T05:07:34;3.42;;;3.13;;
11651;SDS011;5882;48.818;9.114;2023-04-30T05:10:19;3.38;;;3.08;;
11651;SDS011;5882;48.818;9.114;2023-04-30T05:13:04;4.13;;;3.30;;
11651;SDS011;5882;48.818;9.114;2023-04-30T05:15:50;3.22;;;2.92;;
11651;SDS011;5882;48.818;9.114;2023-04-30T05:18:35;3.80;;;3.38;;
11651;SDS011;5882;48.818;9.114;2023-04-30T05:21:22;3.38;;;2.70;;
11651;SDS011;5882;48.818;9.114;2023-04-30T05:24:09;3.92;;;3.15;;
11651;SDS011;5882;48.818;9.114;2023-04-30T05:26:54;3.80;;;3.40;;
11651;SDS011;5882;48.818;9.114;2023-04-30T05:29:39;3.47;;;3.17;;
11651;SDS011;5882;48.818;9.114;2023-04-30T05:32:24;3.53;;;3.22;;
11651;SDS011;5882;48.818;9.114;2023-04-30T05:35:09;3.92;;;2.92;;
11651;SDS011;5882;48.818;9.114;2023-04-30T05:37:55;3.85;;;3.40;;
11651;SDS011;5882;48.818;9.114;2023-04-30T05:40:40;3.22;;;2.92;;
11651;SDS011;5882;48.818;9.114;2023-04-30T05:43:25;4.32;;;3.28;;
11651;SDS011;5882;48.818;9.114;2023-04-30T05:46:10;3.85;;;3.55;;
11651;SDS011;5882;48.818;9.114;2023-04-30T05:48:55;3.75;;;3.35;;
11651;SDS011;5882;48.818;9.114;2023-04-30T05:51:40;3.92;;;3.33;;
11651;SDS011;5882;48.818;9.114;2023-04-30T05:54:26;3.58;;;3.22;;
11651;SDS011;5882;48.818;9.114;2023-04-30T05:57:11;3.97;;;3.58;;
11651;SDS011;5882;48.818;9.114;2023-04-30T05:59:56;3.30;;;3.00;;
11651;SDS011;5882;48.818;9.114;2023-04-30T06:02:41;3.60;;;3.30;;
11651;SDS011;5882;48.818;9.114;2023-04-30T06:05:26;4.22;;;3.60;;
11651;SDS011;5882;48.818;9.114;2023-04-30T06:08:11;3.53;;;3.22;;
11651;SDS011;5882;48.818;9.114;2023-04-30T06:10:58;3.33;;;3.03;;
11651;SDS011;5882;48.818;9.114;2023-04-30T06:13:45;3.33;;;3.03;;
11651;SDS011;5882;48.818;9.114;2023-04-30T06:16:30;3.72;;;3.38;;
11651;SDS011;5882;48.818;9.114;2023-04-30T06:19:16;4.53;;;3.38;;
11651;SDS011;5882;48.818;9.114;2023-04-30T06:22:01;3.58;;;3.28;;
11651;SDS011;5882;48.818;9.114;2023-04-30T06:24:46;4.03;;;3.30;;
11651;SDS011;5882;48.818;9.114;2023-04-30T06:27:33;3.50;;;3.17;;
11651;SDS011;5882;48.818;9.114;2023-04-30T06:30:18;3.42;;;3.13;;
11651;SDS011;5882;48.818;9.114;2023-04-30T06:33:03;4.07;;;3.58;;
11651;SDS011;5882;48.818;9.114;2023-04-30T06:35:48;3.58;;;3.28;;
11651;SDS011;5882;48.818;9.114;2023-04-30T06:38:37;3.75;;;3.38;;
11651;SDS011;5882;48.818;9.114;2023-04-30T06:41:22;3.90;;;3.50;;
11651;SDS011;5882;48.818;9.114;2023-04-30T06:44:08;3.97;;;3.45;;
11651;SDS011;5882;48.818;9.114;2023-04-30T06:46:54;3.50;;;3.20;;
11651;SDS011;5882;48.818;9.114;2023-04-30T06:49:39;3.58;;;3.28;;
11651;SDS011;5882;48.818;9.114;2023-04-30T06:52:24;3.30;;;2.72;;
11651;SDS011;5882;48.818;9.114;2023-04-30T06:55:09;3.30;;;3.00;;
11651;SDS011;5882;48.818;9.114;2023-04-30T06:57:54;4.57;;;3.13;;
11651;SDS011;5882;48.818;9.114;2023-04-30T07:00:42;3.42;;;3.13;;
11651;SDS011;5882;48.818;9.114;2023-04-30T07:03:26;4.32;;;3.45;;
11651;SDS011;5882;48.818;9.114;2023-04-30T07:06:11;3.20;;;2.90;;
11651;SDS011;5882;48.818;9.114;2023-04-30T07:08:56;3.42;;;3.13;;
11651;SDS011;5882;48.818;9.114;2023-04-30T07:11:41;3.70;;;3.05;;
11651;SDS011;5882;48.818;9.114;2023-04-30T07:14:27;3.72;;;3.42;;
11651;SDS011;5882;48.818;9.114;2023-04-30T07:17:13;3.45;;;3.15;;
11651;SDS011;5882;48.818;9.114;2023-04-30T07:19:58;3.33;;;3.03;;
11651;SDS011;5882;48.818;9.114;2023-04-30T07:22:43;2.78;;;2.45;;
11651;SDS011;5882;48.818;9.114;2023-04-30T07:25:29;3.05;;;2.83;;
11651;SDS011;5882;48.818;9.114;2023-04-30T07:28:13;3.30;;;3.00;;
11651;SDS011;5882;48.818;9.114;2023-04-30T07:30:58;3.30;;;3.00;;
11651;SDS011;5882;48.818;9.114;2023-04-30T07:33:46;3.03;;;2.83;;
11651;SDS011;5882;48.818;9.114;2023-04-30T07:36:33;2.80;;;2.58;;
11651;SDS011;5882;48.818;9.114;2023-04-30T07:39:18;3.25;;;2.95;;
11651;SDS011;5882;48.818;9.114;2023-04-30T07:42:03;2.95;;;2.67;;
11651;SDS011;5882;48.818;9.114;2023-04-30T07:44:48;2.55;;;2.35;;
11651;SDS011;5882;48.818;9.114;2023-04-30T07:47:35;3.05;;;2.80;;
11651;SDS011;5882;48.818;9.114;2023-04-30T07:50:21;2.72;;;2.53;;
11651;SDS011;5882;48.818;9.114;2023-04-30T07:53:06;2.65;;;2.45;;
11651;SDS011;5882;48.818;9.114;2023-04-30T07:55:52;3.55;;;3.25;;
11651;SDS011;5882;48.818;9.114;2023-04-30T07:58:37;3.05;;;2.75;;
11651;SDS011;5882;48.818;9.114;2023-04-30T08:01:22;2.47;;;2.28;;
11651;SDS011;5882;48.818;9.114;2023-04-30T08:04:08;3.00;;;2.80;;
11651;SDS011;5882;48.818;9.114;2023-04-30T08:06:56;2.22;;;2.03;;
11651;SDS011;5882;48.818;9.114;2023-04-30T08:09:41;2.63;;;2.42;;
11651;SDS011;5882;48.818;9.114;2023-04-30T08:12:26;2.67;;;2.47;;
11651;SDS011;5882;48.818;9.114;2023-04-30T08:15:11;2.63;;;2.42;;
11651;SDS011;5882;48.818;9.114;2023-04-30T08:17:56;2.30;;;2.15;;
11651;SDS011;5882;48.818;9.114;2023-04-30T08:20:41;2.40;;;2.05;;
11651;SDS011;5882;48.818;9.114;2023-04-30T08:23:27;2.40;;;2.20;;
11651;SDS011;5882;48.818;9.114;2023-04-30T08:26:12;2.22;;;2.03;;
11651;SDS011;5882;48.818;9.114;2023-04-30T08:28:57;2.13;;;1.95;;
11651;SDS011;5882;48.818;9.114;2023-04-30T08:31:42;2.83;;;2.63;;
11651;SDS011;5882;48.818;9.114;2023-04-30T08:34:27;2.50;;;2.30;;
11651;SDS011;5882;48.818;9.114;2023-04-30T08:37:12;2.03;;;1.83;;
11651;SDS011;5882;48.818;9.114;2023-04-30T08:39:58;2.03;;;1.77;;
11651;SDS011;5882;48.818;9.114;2023-04-30T08:42:45;2.58;;;2.38;;
11651;SDS011;5882;48.818;9.114;2023-04-30T08:45:31;2.00;;;1.90;;
11651;SDS011;5882;48.818;9.114;2023-04-30T08:48:17;2.20;;;2.10;;
11651;SDS011;5882;48.818;9.114;2023-04-30T08:51:02;2.10;;;2.00;;
11651;SDS011;5882;48.818;9.114;2023-04-30T08:53:48;2.33;;;2.13;;
11651;SDS011;5882;48.818;9.114;2023-04-30T08:56:35;2.05;;;1.95;;
11651;SDS011;5882;48.818;9.114;2023-04-30T08:59:20;2.28;;;2.00;;
11651;SDS011;5882;48.818;9.114;2023-04-30T09:02:06;2.38;;;1.85;;
11651;SDS011;5882;48.818;9.114;2023-04-30T09:04:52;1.60;;;1.50;;
11651;SDS011;5882;48.818;9.114;2023-04-30T09:07:38;1.80;;;1.67;;
11651;SDS011;5882;48.818;9.114;2023-04-30T09:10:24;1.83;;;1.67;;
11651;SDS011;5882;48.818;9.114;2023-04-30T09:13:11;1.92;;;1.80;;
11651;SDS011;5882;48.818;9.114;2023-04-30T09:15:56;1.50;;;1.40;;
11651;SDS011;5882;48.818;9.114;2023-04-30T09:18:43;1.35;;;1.25;;
11651;SDS011;5882;48.818;9.114;2023-04-30T09:21:32;1.70;;;1.60;;
11651;SDS011;5882;48.818;9.114;2023-04-30T09:24:17;1.60;;;1.50;;
11651;SDS011;5882;48.818;9.114;2023-04-30T09:27:04;1.60;;;1.50;;
11651;SDS011;5882;48.818;9.114;2023-04-30T09:30:00;1.90;;;1.60;;
11651;SDS011;5882;48.818;9.114;2023-04-30T09:32:53;1.73;;;1.63;;
11651;SDS011;5882;48.818;9.114;2023-04-30T09:35:38;1.70;;;1.60;;
11651;SDS011;5882;48.818;9.114;2023-04-30T09:38:24;1.75;;;1.65;;
11651;SDS011;5882;48.818;9.114;2023-04-30T09:41:20;1.52;;;1.42;;
11651;SDS011;5882;48.818;9.114;2023-04-30T09:44:06;2.75;;;1.58;;
11651;SDS011;5882;48.818;9.114;2023-04-30T09:46:52;1.73;;;1.63;;
11651;SDS011;5882;48.818;9.114;2023-04-30T09:49:38;1.50;;;1.40;;
11651;SDS011;5882;48.818;9.114;2023-04-30T09:52:24;1.60;;;1.35;;
11651;SDS011;5882;48.818;9.114;2023-04-30T09:55:09;2.40;;;1.40;;
11651;SDS011;5882;48.818;9.114;2023-04-30T09:57:54;1.58;;;1.48;;
11651;SDS011;5882;48.818;9.114;2023-04-30T10:00:39;1.45;;;1.35;;
11651;SDS011;5882;48.818;9.114;2023-04-30T10:03:27;1.40;;;1.30;;
11651;SDS011;5882;48.818;9.114;2023-04-30T10:06:14;1.52;;;1.42;;
11651;SDS011;5882;48.818;9.114;2023-04-30T10:09:01;2.05;;;1.92;;
11651;SDS011;5882;48.818;9.114;2023-04-30T10:11:48;1.70;;;1.60;;
11651;SDS011;5882;48.818;9.114;2023-04-30T10:14:34;1.70;;;1.60;;
11651;SDS011;5882;48.818;9.114;2023-04-30T10:17:19;1.67;;;1.58;;
11651;SDS011;5882;48.818;9.114;2023-04-30T10:20:08;1.70;;;1.60;;
11651;SDS011;5882;48.818;9.114;2023-04-30T10:22:53;1.52;;;1.48;;
11651;SDS011;5882;48.818;9.114;2023-04-30T10:25:39;1.77;;;1.67;;
11651;SDS011;5882;48.818;9.114;2023-04-30T10:28:24;1.42;;;1.33;;
11651;SDS011;5882;48.818;9.114;2023-04-30T10:31:10;1.77;;;1.67;;
11651;SDS011;5882;48.818;9.114;2023-04-30T10:33:59;1.63;;;1.52;;
11651;SDS011;5882;48.818;9.114;2023-04-30T10:36:50;1.67;;;1.58;;
11651;SDS011;5882;48.818;9.114;2023-04-30T10:39:38;1.70;;;1.60;;
11651;SDS011;5882;48.818;9.114;2023-04-30T10:42:24;1.90;;;1.80;;
11651;SDS011;5882;48.818;9.114;2023-04-30T10:45:09;1.55;;;1.30;;
11651;SDS011;5882;48.818;9.114;2023-04-30T10:47:55;1.50;;;1.40;;
11651;SDS011;5882;48.818;9.114;2023-04-30T10:50:40;1.80;;;1.70;;
11651;SDS011;5882;48.818;9.114;2023-04-30T10:53:30;1.63;;;1.52;;
11651;SDS011;5882;48.818;9.114;2023-04-30T10:56:28;1.60;;;1.50;;
11651;SDS011;5882;48.818;9.114;2023-04-30T10:59:13;1.60;;;1.50;;
11651;SDS011;5882;48.818;9.114;2023-04-30T11:01:59;1.77;;;1.60;;
11651;SDS011;5882;48.818;9.114;2023-04-30T11:07:49;1.65;;;1.55;;
11651;SDS011;5882;48.818;9.114;2023-04-30T11:10:36;1.77;;;1.67;;
11651;SDS011;5882;48.818;9.114;2023-04-30T11:13:21;1.60;;;1.50;;
11651;SDS011;5882;48.818;9.114;2023-04-30T11:16:06;1.90;;;1.80;;
11651;SDS011;5882;48.818;9.114;2023-04-30T11:18:53;1.55;;;1.45;;
11651;SDS011;5882;48.818;9.114;2023-04-30T11:21:39;1.60;;;1.50;;
11651;SDS011;5882;48.818;9.114;2023-04-30T11:27:29;1.40;;;1.30;;
11651;SDS011;5882;48.818;9.114;2023-04-30T11:30:15;1.67;;;1.58;;
11651;SDS011;5882;48.818;9.114;2023-04-30T11:33:01;1.60;;;1.50;;
11651;SDS011;5882;48.818;9.114;2023-04-30T11:35:47;1.67;;;1.58;;
11651;SDS011;5882;48.818;9.114;2023-04-30T11:38:35;1.88;;;1.77;;
11651;SDS011;5882;48.818;9.114;2023-04-30T11:41:20;1.55;;;1.45;;
11651;SDS011;5882;48.818;9.114;2023-04-30T11:47:01;1.90;;;1.70;;
11651;SDS011;5882;48.818;9.114;2023-04-30T11:49:46;1.60;;;1.50;;
11651;SDS011;5882;48.818;9.114;2023-04-30T11:52:34;1.95;;;1.85;;
11651;SDS011;5882;48.818;9.114;2023-04-30T11:55:20;1.70;;;1.58;;
11651;SDS011;5882;48.818;9.114;2023-04-30T11:58:08;1.70;;;1.60;;
11651;SDS011;5882;48.818;9.114;2023-04-30T12:00:53;1.77;;;1.67;;
11651;SDS011;5882;48.818;9.114;2023-04-30T12:03:45;1.65;;;1.55;;
11651;SDS011;5882;48.818;9.114;2023-04-30T12:06:31;1.75;;;1.65;;
11651;SDS011;5882;48.818;9.114;2023-04-30T12:09:16;1.80;;;1.60;;
11651;SDS011;5882;48.818;9.114;2023-04-30T12:12:01;1.73;;;1.63;;
11651;SDS011;5882;48.818;9.114;2023-04-30T12:14:46;1.60;;;1.50;;
11651;SDS011;5882;48.818;9.114;2023-04-30T12:17:32;1.50;;;1.40;;
11651;SDS011;5882;48.818;9.114;2023-04-30T12:20:19;1.50;;;1.40;;
11651;SDS011;5882;48.818;9.114;2023-04-30T12:23:04;1.60;;;1.50;;
11651;SDS011;5882;48.818;9.114;2023-04-30T12:25:50;1.55;;;1.45;;
11651;SDS011;5882;48.818;9.114;2023-04-30T12:28:35;1.67;;;1.55;;
11651;SDS011;5882;48.818;9.114;2023-04-30T12:31:20;1.63;;;1.52;;
11651;SDS011;5882;48.818;9.114;2023-04-30T12:34:06;1.50;;;1.40;;
11651;SDS011;5882;48.818;9.114;2023-04-30T12:36:56;1.50;;;1.40;;
11651;SDS011;5882;48.818;9.114;2023-04-30T12:39:42;1.45;;;1.35;;
11651;SDS011;5882;48.818;9.114;2023-04-30T12:42:30;1.52;;;1.42;;
11651;SDS011;5882;48.818;9.114;2023-04-30T12:48:17;1.77;;;1.65;;
11651;SDS011;5882;48.818;9.114;2023-04-30T12:51:02;1.67;;;1.58;;
11651;SDS011;5882;48.818;9.114;2023-04-30T12:53:49;1.98;;;1.77;;
11651;SDS011;5882;48.818;9.114;2023-04-30T12:56:34;1.40;;;1.30;;
11651;SDS011;5882;48.818;9.114;2023-04-30T12:59:19;1.60;;;1.50;;
11651;SDS011;5882;48.818;9.114;2023-04-30T13:02:08;1.63;;;1.52;;
11651;SDS011;5882;48.818;9.114;2023-04-30T13:04:54;1.50;;;1.40;;
11651;SDS011;5882;48.818;9.114;2023-04-30T13:07:39;1.90;;;1.80;;
11651;SDS011;5882;48.818;9.114;2023-04-30T13:10:26;1.70;;;1.60;;
11651;SDS011;5882;48.818;9.114;2023-04-30T13:13:11;2.35;;;1.67;;
11651;SDS011;5882;48.818;9.114;2023-04-30T13:15:56;1.52;;;1.42;;
11651;SDS011;5882;48.818;9.114;2023-04-30T13:18:42;1.63;;;1.52;;
11651;SDS011;5882;48.818;9.114;2023-04-30T13:21:27;1.80;;;1.70;;
11651;SDS011;5882;48.818;9.114;2023-04-30T13:24:12;1.70;;;1.60;;
11651;SDS011;5882;48.818;9.114;2023-04-30T13:26:58;1.80;;;1.70;;
11651;SDS011;5882;48.818;9.114;2023-04-30T13:29:45;1.75;;;1.55;;
11651;SDS011;5882;48.818;9.114;2023-04-30T13:32:30;1.40;;;1.30;;
11651;SDS011;5882;48.818;9.114;2023-04-30T13:35:15;1.40;;;1.30;;
11651;SDS011;5882;48.818;9.114;2023-04-30T13:38:01;1.38;;;1.30;;
11651;SDS011;5882;48.818;9.114;2023-04-30T13:40:46;1.58;;;1.48;;
11651;SDS011;5882;48.818;9.114;2023-04-30T13:43:32;1.80;;;1.70;;
11651;SDS011;5882;48.818;9.114;2023-04-30T13:46:23;1.50;;;1.40;;
11651;SDS011;5882;48.818;9.114;2023-04-30T13:49:08;1.45;;;1.35;;
11651;SDS011;5882;48.818;9.114;2023-04-30T13:51:53;1.45;;;1.35;;
11651;SDS011;5882;48.818;9.114;2023-04-30T13:54:38;1.67;;;1.58;;
11651;SDS011;5882;48.818;9.114;2023-04-30T13:57:24;1.67;;;1.58;;
11651;SDS011;5882;48.818;9.114;2023-04-30T14:00:11;1.55;;;1.45;;
11651;SDS011;5882;48.818;9.114;2023-04-30T14:02:57;1.67;;;1.40;;
11651;SDS011;5882;48.818;9.114;2023-04-30T14:05:42;1.30;;;1.30;;
11651;SDS011;5882;48.818;9.114;2023-04-30T14:08:27;1.70;;;1.60;;
11651;SDS011;5882;48.818;9.114;2023-04-30T14:11:13;1.75;;;1.65;;
11651;SDS011;5882;48.818;9.114;2023-04-30T14:13:58;1.90;;;1.80;;
11651;SDS011;5882;48.818;9.114;2023-04-30T14:16:45;1.67;;;1.58;;
11651;SDS011;5882;48.818;9.114;2023-04-30T14:19:30;1.65;;;1.55;;
11651;SDS011;5882;48.818;9.114;2023-04-30T14:22:15;1.60;;;1.50;;
11651;SDS011;5882;48.818;9.114;2023-04-30T14:25:00;1.60;;;1.50;;
11651;SDS011;5882;48.818;9.114;2023-04-30T14:27:46;1.60;;;1.50;;
11651;SDS011;5882;48.818;9.114;2023-04-30T14:30:31;1.70;;;1.60;;
11651;SDS011;5882;48.818;9.114;2023-04-30T14:33:17;1.52;;;1.42;;
11651;SDS011;5882;48.818;9.114;2023-04-30T14:36:02;1.40;;;1.30;;
11651;SDS011;5882;48.818;9.114;2023-04-30T14:38:48;1.42;;;1.33;;
11651;SDS011;5882;48.818;9.114;2023-04-30T14:41:33;1.50;;;1.40;;
11651;SDS011;5882;48.818;9.114;2023-04-30T14:44:19;1.70;;;1.60;;
11651;SDS011;5882;48.818;9.114;2023-04-30T14:47:06;1.50;;;1.40;;
11651;SDS011;5882;48.818;9.114;2023-04-30T14:49:53;1.50;;;1.40;;
11651;SDS011;5882;48.818;9.114;2023-04-30T14:52:38;1.85;;;1.75;;
11651;SDS011;5882;48.818;9.114;2023-04-30T14:55:24;1.65;;;1.50;;
11651;SDS011;5882;48.818;9.114;2023-04-30T14:58:09;1.50;;;1.40;;
11651;SDS011;5882;48.818;9.114;2023-04-30T15:00:55;1.52;;;1.42;;
11651;SDS011;5882;48.818;9.114;2023-04-30T15:03:40;1.60;;;1.50;;
11651;SDS011;5882;48.818;9.114;2023-04-30T15:06:26;1.50;;;1.40;;
11651;SDS011;5882;48.818;9.114;2023-04-30T15:09:11;1.70;;;1.50;;
11651;SDS011;5882;48.818;9.114;2023-04-30T15:11:56;1.63;;;1.52;;
11651;SDS011;5882;48.818;9.114;2023-04-30T15:14:41;1.48;;;1.38;;
11651;SDS011;5882;48.818;9.114;2023-04-30T15:17:27;1.70;;;1.60;;
11651;SDS011;5882;48.818;9.114;2023-04-30T15:20:12;1.50;;;1.40;;
11651;SDS011;5882;48.818;9.114;2023-04-30T15:22:58;1.80;;;1.70;;
11651;SDS011;5882;48.818;9.114;2023-04-30T15:25:44;1.50;;;1.40;;
11651;SDS011;5882;48.818;9.114;2023-04-30T15:28:29;1.58;;;1.48;;
11651;SDS011;5882;48.818;9.114;2023-04-30T15:31:15;1.58;;;1.48;;
11651;SDS011;5882;48.818;9.114;2023-04-30T15:34:00;1.50;;;1.40;;
11651;SDS011;5882;48.818;9.114;2023-04-30T15:36:45;1.73;;;1.63;;
11651;SDS011;5882;48.818;9.114;2023-04-30T15:39:31;1.50;;;1.40;;
11651;SDS011;5882;48.818;9.114;2023-04-30T15:42:18;1.73;;;1.63;;
11651;SDS011;5882;48.818;9.114;2023-04-30T15:45:03;1.35;;;1.25;;
11651;SDS011;5882;48.818;9.114;2023-04-30T15:47:48;1.42;;;1.33;;
11651;SDS011;5882;48.818;9.114;2023-04-30T15:50:33;1.50;;;1.40;;
11651;SDS011;5882;48.818;9.114;2023-04-30T15:53:19;1.70;;;1.60;;
11651;SDS011;5882;48.818;9.114;2023-04-30T15:56:06;1.42;;;1.33;;
11651;SDS011;5882;48.818;9.114;2023-04-30T15:58:52;1.67;;;1.30;;
11651;SDS011;5882;48.818;9.114;2023-04-30T16:01:37;1.20;;;1.20;;
11651;SDS011;5882;48.818;9.114;2023-04-30T16:04:22;1.60;;;1.50;;
11651;SDS011;5882;48.818;9.114;2023-04-30T16:07:07;2.10;;;1.77;;
11651;SDS011;5882;48.818;9.114;2023-04-30T16:09:53;1.50;;;1.40;;
11651;SDS011;5882;48.818;9.114;2023-04-30T16:12:40;1.50;;;1.40;;
11651;SDS011;5882;48.818;9.114;2023-04-30T16:15:25;1.42;;;1.33;;
11651;SDS011;5882;48.818;9.114;2023-04-30T16:18:12;1.88;;;1.73;;
11651;SDS011;5882;48.818;9.114;2023-04-30T16:20:58;1.95;;;1.70;;
11651;SDS011;5882;48.818;9.114;2023-04-30T16:23:44;1.90;;;1.80;;
11651;SDS011;5882;48.818;9.114;2023-04-30T16:26:29;1.80;;;1.70;;
11651;SDS011;5882;48.818;9.114;2023-04-30T16:29:18;1.60;;;1.50;;
11651;SDS011;5882;48.818;9.114;2023-04-30T16:32:04;1.70;;;1.58;;
11651;SDS011;5882;48.818;9.114;2023-04-30T16:34:49;1.42;;;1.33;;
11651;SDS011;5882;48.818;9.114;2023-04-30T16:37:34;1.80;;;1.70;;
11651;SDS011;5882;48.818;9.114;2023-04-30T16:40:19;1.55;;;1.45;;
11651;SDS011;5882;48.818;9.114;2023-04-30T16:43:05;1.35;;;1.20;;
11651;SDS011;5882;48.818;9.114;2023-04-30T16:45:52;1.60;;;1.50;;
11651;SDS011;5882;48.818;9.114;2023-04-30T16:48:37;1.85;;;1.75;;
11651;SDS011;5882;48.818;9.114;2023-04-30T16:51:22;1.52;;;1.42;;
11651;SDS011;5882;48.818;9.114;2023-04-30T16:54:09;1.63;;;1.52;;
11651;SDS011;5882;48.818;9.114;2023-04-30T16:56:54;1.40;;;1.30;;
11651;SDS011;5882;48.818;9.114;2023-04-30T16:59:39;1.55;;;1.45;;
11651;SDS011;5882;48.818;9.114;2023-04-30T17:02:26;1.60;;;1.50;;
11651;SDS011;5882;48.818;9.114;2023-04-30T17:05:11;1.60;;;1.50;;